createdAt,value
2018-02-17T00:00:12.293Z,14.70
2018-02-17T00:02:39.756Z,15.00
2018-02-17T00:05:07.764Z,16.17
2018-02-17T00:07:35.280Z,15.90
2018-02-17T00:10:02.762Z,16.63
2018-02-17T00:12:30.710Z,16.43
2018-02-17T00:14:58.193Z,13.77
2018-02-17T00:17:25.679Z,14.13
2018-02-17T00:19:53.219Z,15.27
2018-02-17T00:22:21.090Z,14.17
2018-02-17T00:24:49.010Z,13.63
2018-02-17T00:27:16.592Z,13.17
2018-02-17T00:29:44.116Z,14.20
2018-02-17T00:32:11.833Z,14.43
2018-02-17T00:34:39.449Z,14.27
2018-02-17T00:37:07.654Z,13.30
2018-02-17T00:39:35.425Z,14.50
2018-02-17T00:42:02.923Z,11.73
2018-02-17T00:44:30.961Z,13.67
2018-02-17T00:46:58.526Z,12.07
2018-02-17T00:49:25.989Z,11.90
2018-02-17T00:51:53.466Z,10.80
2018-02-17T00:54:21.019Z,11.30
2018-02-17T00:56:48.517Z,9.87
2018-02-17T00:59:16.080Z,11.60
2018-02-17T01:01:43.558Z,11.20
2018-02-17T01:04:11.010Z,10.47
2018-02-17T01:06:38.577Z,11.97
2018-02-17T01:09:06.136Z,10.83
2018-02-17T01:11:33.593Z,11.70
2018-02-17T01:14:01.053Z,10.87
2018-02-17T01:16:28.518Z,11.80
2018-02-17T01:18:55.984Z,11.70
2018-02-17T01:21:23.440Z,12.03
2018-02-17T01:23:50.913Z,10.87
2018-02-17T01:26:18.373Z,10.70
2018-02-17T01:28:45.936Z,10.90
2018-02-17T01:31:13.390Z,10.37
2018-02-17T01:33:40.852Z,9.97
2018-02-17T01:36:08.314Z,10.97
2018-02-17T01:38:35.776Z,10.37
2018-02-17T01:41:03.248Z,10.60
2018-02-17T01:43:30.724Z,11.67
2018-02-17T01:45:58.196Z,10.90
2018-02-17T01:48:25.745Z,11.43
2018-02-17T01:50:53.327Z,10.17
2018-02-17T01:53:20.814Z,10.37
2018-02-17T01:55:48.688Z,12.13
2018-02-17T01:58:16.528Z,10.27
2018-02-17T02:00:44.000Z,10.30
2018-02-17T02:03:11.554Z,10.73
2018-02-17T02:05:39.007Z,12.30
2018-02-17T02:08:06.478Z,11.43
2018-02-17T02:10:33.955Z,10.77
2018-02-17T02:13:01.461Z,11.97
2018-02-17T02:15:28.921Z,11.23
2018-02-17T02:17:56.365Z,11.93
2018-02-17T02:20:23.849Z,12.00
2018-02-17T02:22:51.341Z,13.13
2018-02-17T02:25:18.793Z,11.40
2018-02-17T02:27:46.252Z,12.60
2018-02-17T02:30:13.715Z,10.43
2018-02-17T02:32:41.157Z,12.27
2018-02-17T02:35:08.659Z,12.60
2018-02-17T02:37:36.133Z,12.13
2018-02-17T02:40:03.569Z,13.63
2018-02-17T02:42:31.027Z,15.57
2018-02-17T02:44:58.506Z,12.40
2018-02-17T02:47:25.975Z,14.30
2018-02-17T02:49:53.469Z,16.43
2018-02-17T02:52:20.982Z,16.37
2018-02-17T02:54:48.555Z,18.17
2018-02-17T02:57:16.527Z,15.23
2018-02-17T02:59:43.980Z,17.93
2018-02-17T03:02:11.514Z,17.07
2018-02-17T03:04:38.962Z,17.70
2018-02-17T03:07:06.569Z,16.30
2018-02-17T03:09:34.026Z,16.40
2018-02-17T03:12:01.500Z,17.77
2018-02-17T03:14:28.959Z,16.83
2018-02-17T03:16:56.526Z,18.30
2018-02-17T03:19:23.982Z,16.27
2018-02-17T03:21:51.439Z,16.27
2018-02-17T03:24:18.893Z,16.93
2018-02-17T03:26:46.373Z,15.33
2018-02-17T03:29:13.900Z,15.70
2018-02-17T03:31:41.414Z,16.40
2018-02-17T03:34:10.183Z,17.67
2018-02-17T03:36:37.672Z,16.10
2018-02-17T03:39:05.319Z,18.50
2018-02-17T03:41:32.786Z,16.00
2018-02-17T03:44:00.359Z,17.50
2018-02-17T03:46:27.822Z,18.60
2018-02-17T03:48:55.276Z,17.73
2018-02-17T03:51:22.736Z,18.30
2018-02-17T03:53:50.297Z,16.73
2018-02-17T03:56:17.752Z,18.57
2018-02-17T03:58:45.197Z,17.00
2018-02-17T04:01:12.792Z,18.60
2018-02-17T04:03:40.246Z,19.00
2018-02-17T04:06:08.005Z,17.37
2018-02-17T04:08:35.573Z,19.90
2018-02-17T04:11:03.020Z,18.30
2018-02-17T04:13:30.489Z,17.73
2018-02-17T04:15:57.941Z,18.20
2018-02-17T04:18:25.419Z,18.50
2018-02-17T04:20:52.881Z,16.37
2018-02-17T04:23:20.349Z,16.00
2018-02-17T04:25:47.801Z,16.33
2018-02-17T04:28:15.285Z,17.43
2018-02-17T04:30:42.804Z,15.20
2018-02-17T04:33:10.520Z,15.80
2018-02-17T04:35:38.600Z,15.93
2018-02-17T04:38:08.066Z,16.83
2018-02-17T04:40:41.364Z,13.33
2018-02-17T04:43:19.200Z,14.17
2018-02-17T04:45:49.583Z,15.70
2018-02-17T04:48:32.696Z,15.87
2018-02-17T04:51:14.944Z,16.00
2018-02-17T04:53:43.270Z,14.83
2018-02-17T04:56:14.576Z,13.63
2018-02-17T04:58:48.752Z,16.53
2018-02-17T05:01:18.848Z,15.67
2018-02-17T05:03:47.179Z,14.77
2018-02-17T05:06:25.509Z,15.13
2018-02-17T05:09:09.320Z,15.00
2018-02-17T05:11:36.805Z,13.67
2018-02-17T05:14:25.454Z,15.07
2018-02-17T05:16:53.330Z,15.83
2018-02-17T05:19:37.873Z,15.60
2018-02-17T05:22:07.452Z,14.20
2018-02-17T05:24:35.425Z,17.10
2018-02-17T05:27:06.789Z,16.87
2018-02-17T05:29:44.203Z,14.20
2018-02-17T05:32:21.983Z,17.23
2018-02-17T05:35:10.689Z,17.07
2018-02-17T05:37:38.197Z,15.00
2018-02-17T05:40:11.765Z,16.27
2018-02-17T05:42:41.765Z,16.80
2018-02-17T05:45:24.092Z,17.07
2018-02-17T05:48:06.473Z,15.00
2018-02-17T05:50:33.978Z,15.53
2018-02-17T05:53:01.836Z,15.50
2018-02-17T05:55:29.331Z,15.27
2018-02-17T05:57:56.832Z,16.47
2018-02-17T06:00:24.325Z,15.33
2018-02-17T06:02:52.204Z,13.87
2018-02-17T06:05:20.100Z,15.20
2018-02-17T06:07:47.568Z,15.60
2018-02-17T06:10:15.049Z,15.90
2018-02-17T06:12:42.547Z,15.20
2018-02-17T06:15:10.121Z,15.50
2018-02-17T06:17:38.078Z,15.80
2018-02-17T06:20:05.561Z,16.03
2018-02-17T06:22:33.442Z,15.23
2018-02-17T06:25:01.304Z,18.00
2018-02-17T06:27:29.188Z,16.67
2018-02-17T06:29:57.669Z,16.20
2018-02-17T06:32:25.553Z,15.13
2018-02-17T06:34:53.067Z,15.00
2018-02-17T06:37:20.659Z,15.30
2018-02-17T06:39:48.569Z,15.20
2018-02-17T06:42:16.046Z,14.20
2018-02-17T06:44:43.512Z,14.70
2018-02-17T06:47:11.097Z,14.60
2018-02-17T06:49:38.665Z,15.00
2018-02-17T06:52:06.167Z,14.93
2018-02-17T06:54:33.698Z,14.83
2018-02-17T06:57:01.226Z,15.53
2018-02-17T06:59:30.636Z,14.03
2018-02-17T07:01:58.099Z,13.83
2018-02-17T07:04:25.603Z,15.67
2018-02-17T07:06:53.465Z,16.30
2018-02-17T07:09:21.363Z,17.47
2018-02-17T07:11:48.898Z,14.07
2018-02-17T07:14:16.782Z,14.10
2018-02-17T07:16:44.687Z,14.70
2018-02-17T07:19:12.185Z,15.73
2018-02-17T07:21:39.758Z,15.60
2018-02-17T07:24:07.344Z,16.83
2018-02-17T07:26:35.271Z,15.77
2018-02-17T07:29:02.773Z,20.80
2018-02-17T07:31:30.651Z,24.07
2018-02-17T07:33:58.520Z,17.70
2018-02-17T07:36:26.484Z,15.73
2018-02-17T07:38:54.348Z,15.33
2018-02-17T07:41:21.897Z,14.60
2018-02-17T07:43:49.399Z,15.50
2018-02-17T07:46:17.348Z,24.60
2018-02-17T07:48:44.933Z,18.97
2018-02-17T07:51:12.827Z,15.57
2018-02-17T07:53:40.382Z,16.57
2018-02-17T07:56:07.912Z,15.63
2018-02-17T07:58:35.821Z,15.10
2018-02-17T08:01:03.375Z,19.20
2018-02-17T08:03:30.946Z,13.93
2018-02-17T08:05:58.483Z,16.63
2018-02-17T08:08:26.403Z,15.60
2018-02-17T08:10:53.941Z,16.00
2018-02-17T08:13:21.439Z,16.27
2018-02-17T08:15:48.964Z,15.27
2018-02-17T08:18:16.494Z,15.40
2018-02-17T08:20:44.207Z,16.47
2018-02-17T08:23:12.173Z,17.07
2018-02-17T08:25:39.644Z,14.70
2018-02-17T08:28:07.194Z,14.40
2018-02-17T08:30:34.878Z,15.60
2018-02-17T08:33:02.381Z,16.50
2018-02-17T08:35:30.363Z,17.13
2018-02-17T08:37:58.293Z,17.20
2018-02-17T08:40:25.770Z,15.23
2018-02-17T08:42:53.310Z,15.40
2018-02-17T08:45:20.807Z,16.53
2018-02-17T08:47:48.318Z,14.57
2018-02-17T08:50:15.867Z,15.60
2018-02-17T08:52:43.844Z,15.53
2018-02-17T08:55:11.865Z,16.50
2018-02-17T08:57:39.409Z,15.23
2018-02-17T09:00:07.239Z,16.33
2018-02-17T09:02:35.209Z,16.07
2018-02-17T09:05:02.792Z,18.00
2018-02-17T09:07:30.287Z,15.87
2018-02-17T09:09:57.830Z,15.80
2018-02-17T09:12:25.367Z,15.00
2018-02-17T09:14:54.171Z,16.00
2018-02-17T09:17:22.173Z,15.90
2018-02-17T09:19:49.669Z,14.20
2018-02-17T09:22:17.193Z,17.70
2018-02-17T09:24:44.861Z,15.50
2018-02-17T09:27:12.397Z,16.60
2018-02-17T09:29:40.301Z,14.60
2018-02-17T09:32:07.928Z,16.70
2018-02-17T09:34:35.384Z,14.10
2018-02-17T09:37:03.364Z,14.93
2018-02-17T09:39:32.204Z,13.13
2018-02-17T09:42:00.533Z,14.60
2018-02-17T09:44:28.465Z,13.83
2018-02-17T09:46:56.210Z,15.97
2018-02-17T09:49:23.858Z,13.47
2018-02-17T09:51:51.429Z,14.53
2018-02-17T09:54:18.887Z,15.30
2018-02-17T09:56:46.748Z,15.63
2018-02-17T09:59:14.618Z,15.60
2018-02-17T10:01:42.502Z,15.83
2018-02-17T10:04:10.377Z,18.10
2018-02-17T10:06:37.928Z,14.50
2018-02-17T10:09:05.889Z,15.73
2018-02-17T10:11:33.857Z,14.00
2018-02-17T10:14:01.460Z,14.97
2018-02-17T10:16:29.005Z,14.57
2018-02-17T10:18:56.848Z,14.77
2018-02-17T10:21:24.334Z,15.53
2018-02-17T10:23:52.233Z,14.90
2018-02-17T10:26:19.711Z,14.80
2018-02-17T10:28:47.180Z,15.00
2018-02-17T10:31:14.671Z,15.40
2018-02-17T10:33:42.124Z,14.70
2018-02-17T10:36:09.596Z,14.33
2018-02-17T10:38:37.088Z,15.70
2018-02-17T10:41:05.030Z,12.70
2018-02-17T10:43:32.539Z,14.63
2018-02-17T10:46:00.001Z,16.27
2018-02-17T10:48:27.449Z,17.80
2018-02-17T10:50:55.559Z,14.77
2018-02-17T10:53:23.010Z,14.87
2018-02-17T10:55:50.469Z,15.43
2018-02-17T10:58:17.939Z,14.10
2018-02-17T11:00:45.413Z,15.10
2018-02-17T11:03:12.864Z,14.93
2018-02-17T11:05:40.368Z,15.43
2018-02-17T11:08:07.833Z,17.60
2018-02-17T11:10:35.285Z,14.53
2018-02-17T11:13:03.264Z,13.97
2018-02-17T11:15:30.831Z,15.50
2018-02-17T11:17:58.286Z,15.70
2018-02-17T11:20:25.840Z,14.67
2018-02-17T11:22:53.420Z,15.13
2018-02-17T11:25:20.964Z,15.00
2018-02-17T11:27:48.629Z,13.10
2018-02-17T11:30:16.109Z,14.67
2018-02-17T11:32:43.592Z,15.00
2018-02-17T11:35:11.467Z,14.77
2018-02-17T11:37:39.333Z,16.00
2018-02-17T11:40:07.237Z,15.87
2018-02-17T11:42:34.693Z,15.30
2018-02-17T11:45:02.161Z,15.23
2018-02-17T11:47:29.674Z,14.73
2018-02-17T11:49:57.224Z,13.70
2018-02-17T11:52:24.802Z,14.37
2018-02-17T11:54:52.353Z,13.50
2018-02-17T11:57:19.903Z,14.20
2018-02-17T11:59:47.444Z,14.83
2018-02-17T12:02:14.931Z,14.30
2018-02-17T12:04:42.422Z,14.50
2018-02-17T12:07:09.989Z,14.47
2018-02-17T12:09:37.846Z,15.00
2018-02-17T12:12:05.320Z,15.60
2018-02-17T12:14:32.874Z,13.67
2018-02-17T12:17:00.350Z,13.90
2018-02-17T12:19:27.817Z,13.50
2018-02-17T12:21:56.262Z,13.80
2018-02-17T12:24:23.740Z,13.23
2018-02-17T12:26:51.310Z,15.57
2018-02-17T12:29:18.824Z,11.27
2018-02-17T12:31:46.333Z,12.07
2018-02-17T12:34:13.852Z,11.73
2018-02-17T12:36:41.663Z,12.03
2018-02-17T12:39:09.129Z,13.53
2018-02-17T12:41:36.601Z,13.43
2018-02-17T12:44:04.150Z,12.50
2018-02-17T12:46:31.613Z,13.17
2018-02-17T12:48:59.488Z,12.50
2018-02-17T12:51:26.951Z,13.37
2018-02-17T12:53:54.418Z,10.87
2018-02-17T12:56:22.378Z,12.40
2018-02-17T12:58:49.852Z,11.97
2018-02-17T13:01:17.308Z,12.77
2018-02-17T13:03:44.770Z,13.30
2018-02-17T13:06:12.265Z,12.60
2018-02-17T13:08:39.745Z,12.67
2018-02-17T13:11:07.269Z,11.90
2018-02-17T13:13:35.377Z,11.87
2018-02-17T13:16:02.890Z,12.40
2018-02-17T13:18:30.357Z,11.67
2018-02-17T13:20:58.588Z,11.87
2018-02-17T13:23:26.098Z,11.93
2018-02-17T13:25:53.874Z,10.50
2018-02-17T13:28:25.996Z,12.23
2018-02-17T13:30:54.472Z,12.60
2018-02-17T13:33:22.513Z,11.67
2018-02-17T13:35:50.559Z,11.80
2018-02-17T13:38:18.179Z,11.17
2018-02-17T13:40:45.706Z,13.30
2018-02-17T13:43:14.467Z,11.90
2018-02-17T13:45:41.965Z,11.30
2018-02-17T13:48:09.517Z,12.60
2018-02-17T13:50:37.380Z,11.17
2018-02-17T13:53:04.830Z,12.60
2018-02-17T13:55:32.471Z,12.30
2018-02-17T13:58:01.154Z,11.00
2018-02-17T14:00:28.686Z,13.10
2018-02-17T14:02:56.229Z,12.23
2018-02-17T14:05:23.691Z,10.40
2018-02-17T14:07:51.162Z,11.03
2018-02-17T14:10:19.029Z,11.33
2018-02-17T14:12:46.605Z,11.03
2018-02-17T14:15:14.179Z,11.90
2018-02-17T14:17:42.078Z,18.33
2018-02-17T14:20:09.594Z,14.80
2018-02-17T14:22:37.041Z,12.97
2018-02-17T14:25:04.908Z,11.47
2018-02-17T14:27:32.374Z,11.40
2018-02-17T14:29:59.854Z,12.43
2018-02-17T14:32:27.305Z,10.73
2018-02-17T14:34:54.770Z,10.97
2018-02-17T14:37:22.221Z,12.33
2018-02-17T14:39:49.670Z,11.60
2018-02-17T14:42:17.160Z,10.73
2018-02-17T14:44:44.701Z,10.87
2018-02-17T14:47:12.169Z,11.73
2018-02-17T14:49:39.633Z,11.60
2018-02-17T14:52:07.092Z,11.60
2018-02-17T14:54:34.620Z,12.53
2018-02-17T14:57:02.605Z,9.20
2018-02-17T14:59:30.107Z,11.00
2018-02-17T15:01:57.583Z,10.87
2018-02-17T15:04:25.034Z,9.10
2018-02-17T15:06:52.613Z,10.20
2018-02-17T15:09:20.565Z,10.03
2018-02-17T15:11:48.025Z,11.27
2018-02-17T15:14:15.481Z,11.97
2018-02-17T15:16:43.048Z,11.80
2018-02-17T15:19:10.933Z,11.53
2018-02-17T15:21:38.385Z,11.13
2018-02-17T15:24:05.852Z,11.03
2018-02-17T15:26:33.317Z,12.23
2018-02-17T15:29:00.773Z,10.00
2018-02-17T15:31:28.346Z,10.40
2018-02-17T15:33:55.898Z,10.30
2018-02-17T15:36:23.352Z,10.53
2018-02-17T15:38:50.834Z,10.40
2018-02-17T15:41:18.275Z,9.63
2018-02-17T15:43:45.847Z,11.00
2018-02-17T15:46:13.302Z,8.97
2018-02-17T15:48:40.773Z,7.97
2018-02-17T15:51:08.236Z,10.27
2018-02-17T15:53:35.794Z,9.53
2018-02-17T15:56:03.681Z,10.90
2018-02-17T15:58:31.219Z,9.40
2018-02-17T16:00:58.800Z,9.30
2018-02-17T16:03:26.267Z,8.97
2018-02-17T16:05:54.634Z,8.33
2018-02-17T16:08:22.116Z,9.00
2018-02-17T16:10:49.586Z,8.40
2018-02-17T16:13:17.056Z,9.47
2018-02-17T16:15:45.321Z,13.43
2018-02-17T16:18:12.866Z,9.60
2018-02-17T16:20:40.329Z,9.33
2018-02-17T16:23:07.769Z,8.67
2018-02-17T16:25:35.247Z,8.20
2018-02-17T16:28:02.724Z,9.93
2018-02-17T16:30:30.192Z,8.50
2018-02-17T16:32:57.643Z,8.77
2018-02-17T16:35:25.099Z,11.07
2018-02-17T16:37:52.622Z,9.67
2018-02-17T16:40:20.080Z,10.40
2018-02-17T16:42:47.542Z,11.20
2018-02-17T16:45:15.066Z,9.93
2018-02-17T16:47:42.669Z,10.87
2018-02-17T16:50:10.297Z,10.37
2018-02-17T16:52:37.846Z,10.50
2018-02-17T16:55:05.314Z,11.47
2018-02-17T16:57:32.798Z,11.47
2018-02-17T17:00:00.750Z,11.90
2018-02-17T17:02:28.206Z,12.30
2018-02-17T17:04:55.980Z,11.43
2018-02-17T17:07:23.447Z,12.27
2018-02-17T17:09:50.906Z,12.13
2018-02-17T17:12:18.865Z,13.20
2018-02-17T17:14:46.438Z,12.67
2018-02-17T17:17:13.915Z,14.53
2018-02-17T17:19:41.856Z,12.10
2018-02-17T17:22:09.429Z,13.57
2018-02-17T17:24:36.898Z,12.03
2018-02-17T17:27:04.781Z,12.13
2018-02-17T17:29:32.261Z,13.60
2018-02-17T17:32:00.118Z,12.43
2018-02-17T17:34:27.586Z,12.43
2018-02-17T17:36:55.437Z,13.00
2018-02-17T17:39:22.924Z,13.93
2018-02-17T17:41:50.875Z,13.40
2018-02-17T17:44:18.344Z,13.00
2018-02-17T17:46:46.582Z,14.57
2018-02-17T17:49:14.061Z,13.57
2018-02-17T17:51:41.545Z,12.37
2018-02-17T17:54:09.005Z,15.20
2018-02-17T17:56:36.492Z,13.27
2018-02-17T17:59:04.342Z,14.50
2018-02-17T18:01:32.197Z,14.20
2018-02-17T18:03:59.688Z,12.13
2018-02-17T18:06:27.161Z,12.87
2018-02-17T18:08:54.997Z,13.37
2018-02-17T18:11:22.567Z,13.20
2018-02-17T18:13:50.122Z,13.13
2018-02-17T18:16:17.618Z,12.27
2018-02-17T18:18:45.569Z,14.33
2018-02-17T18:21:13.025Z,13.60
2018-02-17T18:23:41.829Z,14.93
2018-02-17T18:26:09.795Z,13.53
2018-02-17T18:28:37.270Z,13.40
2018-02-17T18:31:05.147Z,12.30
2018-02-17T18:33:33.079Z,14.13
2018-02-17T18:36:00.554Z,13.20
2018-02-17T18:38:28.010Z,13.67
2018-02-17T18:40:55.463Z,15.80
2018-02-17T18:43:22.955Z,15.13
2018-02-17T18:45:50.515Z,15.10
2018-02-17T18:48:18.129Z,15.73
2018-02-17T18:50:45.597Z,14.90
2018-02-17T18:53:13.102Z,14.60
2018-02-17T18:55:40.556Z,14.20
2018-02-17T18:58:08.023Z,14.83
2018-02-17T19:00:35.502Z,15.20
2018-02-17T19:03:03.451Z,16.27
2018-02-17T19:05:31.021Z,16.97
2018-02-17T19:07:58.506Z,16.50
2018-02-17T19:10:26.381Z,16.63
2018-02-17T19:12:54.229Z,17.37
2018-02-17T19:15:21.791Z,17.20
2018-02-17T19:17:49.268Z,14.83
2018-02-17T19:20:16.762Z,14.50
2018-02-17T19:22:44.286Z,15.20
2018-02-17T19:25:12.144Z,14.53
2018-02-17T19:27:39.662Z,14.50
2018-02-17T19:30:07.124Z,14.00
2018-02-17T19:32:34.573Z,17.53
2018-02-17T19:35:02.061Z,18.03
2018-02-17T19:37:29.559Z,18.70
2018-02-17T19:39:57.018Z,18.97
2018-02-17T19:42:24.482Z,19.50
2018-02-17T19:44:52.034Z,17.13
2018-02-17T19:47:19.490Z,19.17
2018-02-17T19:49:46.953Z,17.90
2018-02-17T19:52:14.539Z,17.13
2018-02-17T19:54:42.049Z,18.53
2018-02-17T19:57:09.567Z,20.60
2018-02-17T19:59:37.226Z,24.60
2018-02-17T20:02:04.948Z,23.03
2018-02-17T20:04:32.438Z,23.47
2018-02-17T20:06:59.922Z,22.23
2018-02-17T20:09:27.445Z,21.67
2018-02-17T20:11:54.937Z,23.03
2018-02-17T20:14:22.415Z,23.17
2018-02-17T20:16:49.904Z,21.93
2018-02-17T20:19:17.484Z,23.20
2018-02-17T20:21:44.944Z,20.83
2018-02-17T20:24:12.412Z,18.57
2018-02-17T20:26:39.873Z,18.17
2018-02-17T20:29:07.365Z,17.70
2018-02-17T20:31:34.854Z,17.13
2018-02-17T20:34:02.322Z,16.40
2018-02-17T20:36:30.180Z,16.20
2018-02-17T20:38:57.642Z,14.57
2018-02-17T20:41:25.104Z,14.50
2018-02-17T20:43:52.552Z,20.23
2018-02-17T20:46:20.013Z,19.80
2018-02-17T20:48:47.540Z,19.00
2018-02-17T20:51:15.009Z,19.50
2018-02-17T20:53:42.467Z,18.40
2018-02-17T20:56:09.998Z,16.63
2018-02-17T20:58:37.455Z,15.57
2018-02-17T21:01:06.326Z,16.53
2018-02-17T21:03:33.818Z,15.37
2018-02-17T21:06:01.690Z,15.37
2018-02-17T21:08:29.570Z,14.47
2018-02-17T21:10:57.062Z,18.77
2018-02-17T21:13:24.545Z,16.10
2018-02-17T21:15:52.023Z,14.80
2018-02-17T21:18:19.633Z,16.27
2018-02-17T21:20:47.081Z,14.83
2018-02-17T21:23:14.944Z,14.90
2018-02-17T21:25:42.893Z,13.37
2018-02-17T21:28:10.361Z,12.73
2018-02-17T21:30:37.929Z,15.33
2018-02-17T21:33:05.471Z,15.60
2018-02-17T21:35:33.144Z,17.63
2018-02-17T21:38:00.711Z,19.90
2018-02-17T21:40:28.428Z,16.23
2018-02-17T21:42:56.107Z,17.40
2018-02-17T21:45:23.921Z,18.20
2018-02-17T21:47:51.500Z,16.70
2018-02-17T21:50:19.379Z,17.30
2018-02-17T21:52:47.738Z,18.40
2018-02-17T21:55:15.283Z,16.40
2018-02-17T21:57:42.776Z,17.00
2018-02-17T22:00:10.699Z,15.03
2018-02-17T22:02:38.166Z,15.87
2018-02-17T22:05:05.976Z,17.27
2018-02-17T22:07:33.448Z,17.87
2018-02-17T22:10:01.403Z,14.73
2018-02-17T22:12:28.952Z,16.70
2018-02-17T22:14:56.416Z,15.27
2018-02-17T22:17:23.911Z,15.30
2018-02-17T22:19:51.900Z,15.67
2018-02-17T22:22:19.377Z,14.67
2018-02-17T22:24:46.859Z,15.20
2018-02-17T22:27:14.474Z,16.00
2018-02-17T22:29:42.350Z,15.43
2018-02-17T22:32:10.289Z,15.40
2018-02-17T22:34:37.876Z,16.50
2018-02-17T22:37:05.734Z,16.97
2018-02-17T22:39:33.727Z,16.30
2018-02-17T22:42:01.826Z,16.77
2018-02-17T22:44:29.355Z,16.30
2018-02-17T22:46:57.772Z,17.70
2018-02-17T22:49:26.004Z,18.53
2018-02-17T22:51:53.464Z,16.73
2018-02-17T22:54:20.936Z,18.47
2018-02-17T22:56:48.784Z,15.03
2018-02-17T22:59:16.257Z,17.20
2018-02-17T23:01:43.993Z,16.10
2018-02-17T23:04:11.835Z,16.83
2018-02-17T23:06:39.791Z,16.80
2018-02-17T23:09:07.752Z,16.30
2018-02-17T23:11:35.398Z,16.87
2018-02-17T23:14:03.352Z,18.10
2018-02-17T23:16:30.828Z,17.80
2018-02-17T23:18:58.453Z,18.70
2018-02-17T23:21:25.988Z,16.63
2018-02-17T23:23:54.089Z,17.57
2018-02-17T23:26:22.242Z,16.50
2018-02-17T23:28:50.076Z,16.67
2018-02-17T23:31:17.674Z,19.33
2018-02-17T23:33:45.133Z,23.57
2018-02-17T23:36:13.907Z,24.67
2018-02-17T23:38:41.380Z,21.07
2018-02-17T23:41:08.858Z,17.83
2018-02-17T23:43:36.745Z,17.10
2018-02-17T23:46:04.284Z,16.07
2018-02-17T23:48:32.993Z,18.37
2018-02-17T23:51:00.469Z,15.87
2018-02-17T23:53:28.101Z,16.30
2018-02-17T23:55:55.648Z,16.73
2018-02-17T23:58:23.116Z,15.53
